チュニス の空港の天気 - METARとTAF

チュニス・カルタゴ国際空港 ( DTTA / TUN ) - チュニジア チュニス
飛行場実況気象(Metar)
観測時間10/19 19:00 CET (10/19 18:00 UTC)
風向・風速北西 4m/s
視程10km以上
天気現象
全天の4割程度の雲 雲底高度 700m
気温22℃
湿度78%
気圧1015hPa
METARDTTA 191800Z 31007KT 9999 SCT023 22/18 Q1015
過去の天気等 Google飛行場航空写真 Wunderground天気予報

過去48時間のMETAR

飛行場予報(TAF)
発表時間: 10/19 18:00 CET (10/19 17:00 UTC)
予報対象時間: 19日19時 CET ~ 20日19時 CET
風向・風速北 5m/s
視程10km以上
全天の4割程度の雲 雲底高度 700m
19日20時 CET ~ 19日22時 CET に徐々に
風向・風速西南西 4m/s
20日1時 CET ~ 20日8時 CET に 確率 40% で一時的に
視程3000m
天気現象もや
20日12時 CET ~ 20日14時 CET に徐々に
風向・風速北北東 4m/s
TAF DTTA 191700Z 1918/2018 35010KT 9999 SCT023
BECMG 1919/1921 24008KT
PROB40 TEMPO 2000/2007 3000 BR
BECMG 2011/2013 03008KT